createdAt,value
2018-08-08T00:01:49.422Z,99490.42
2018-08-08T00:04:24.100Z,99483.37
2018-08-08T00:06:50.998Z,99474.22
2018-08-08T00:09:17.975Z,99476.41
2018-08-08T00:11:44.960Z,99476.80
2018-08-08T00:14:11.904Z,99478.14
2018-08-08T00:16:38.838Z,99474.00
2018-08-08T00:19:05.807Z,99485.89
2018-08-08T00:21:32.796Z,99494.53
2018-08-08T00:23:59.695Z,99489.16
2018-08-08T00:26:26.649Z,99488.33
2018-08-08T00:28:53.614Z,99477.36
2018-08-08T00:31:20.569Z,99475.83
2018-08-08T00:33:47.541Z,99474.09
2018-08-08T00:36:14.498Z,99470.50
2018-08-08T00:38:41.581Z,99471.31
2018-08-08T00:41:09.022Z,99469.93
2018-08-08T00:43:36.602Z,99469.33
2018-08-08T00:46:03.587Z,99468.89
2018-08-08T00:48:31.114Z,99460.18
2018-08-08T00:51:06.289Z,99462.28
2018-08-08T00:53:36.661Z,99457.70
2018-08-08T00:56:03.566Z,99459.16
2018-08-08T00:58:30.490Z,99457.91
2018-08-08T01:00:57.484Z,99452.39
2018-08-08T01:03:24.442Z,99449.41
2018-08-08T01:05:51.593Z,99444.20
2018-08-08T01:08:18.601Z,99448.69
2018-08-08T01:10:45.530Z,99448.95
2018-08-08T01:13:12.493Z,99445.11
2018-08-08T01:15:39.437Z,99449.59
2018-08-08T01:18:06.394Z,99452.48
2018-08-08T01:20:36.385Z,99462.67
2018-08-08T01:23:03.274Z,99465.44
2018-08-08T01:25:30.230Z,99467.77
2018-08-08T01:27:57.182Z,99475.95
2018-08-08T01:30:24.142Z,99487.70
2018-08-08T01:33:06.089Z,99487.78
2018-08-08T01:35:35.473Z,99490.43
2018-08-08T01:38:03.149Z,99503.02
2018-08-08T01:40:30.108Z,99511.39
2018-08-08T01:42:57.713Z,99520.59
2018-08-08T01:45:27.106Z,99532.70
2018-08-08T01:47:53.941Z,99541.15
2018-08-08T01:50:20.897Z,99545.75
2018-08-08T01:52:47.865Z,99552.52
2018-08-08T01:55:15.133Z,99554.30
2018-08-08T01:57:42.119Z,99559.57
2018-08-08T02:00:12.579Z,99554.82
2018-08-08T02:02:40.302Z,99557.27
2018-08-08T02:05:07.662Z,99560.23
2018-08-08T02:07:34.614Z,99565.97
2018-08-08T02:10:01.586Z,99559.06
2018-08-08T02:12:28.559Z,99568.73
2018-08-08T02:14:55.462Z,99568.63
2018-08-08T02:17:22.352Z,99569.21
2018-08-08T02:19:50.553Z,99562.64
2018-08-08T02:22:18.297Z,99564.36
2018-08-08T02:24:46.558Z,99567.23
2018-08-08T02:27:15.058Z,99577.73
2018-08-08T02:29:44.545Z,99573.69
2018-08-08T02:32:19.767Z,99570.33
2018-08-08T02:34:47.649Z,99581.70
2018-08-08T02:37:14.624Z,99595.78
2018-08-08T02:39:42.220Z,99594.92
2018-08-08T02:42:09.129Z,99607.16
2018-08-08T02:44:36.083Z,99605.11
2018-08-08T02:47:03.023Z,99611.70
2018-08-08T02:49:29.898Z,99608.44
2018-08-08T02:51:57.683Z,99605.77
2018-08-08T02:54:24.630Z,99601.79
2018-08-08T02:56:51.587Z,99608.45
2018-08-08T02:59:18.546Z,99604.05
2018-08-08T03:01:45.512Z,99606.25
2018-08-08T03:04:12.490Z,99610.02
2018-08-08T03:06:39.431Z,99619.30
2018-08-08T03:09:07.767Z,99633.06
2018-08-08T03:11:35.873Z,99639.05
2018-08-08T03:14:03.725Z,99636.56
2018-08-08T03:16:31.662Z,99652.20
2018-08-08T03:18:58.634Z,99667.19
2018-08-08T03:21:25.582Z,99665.67
2018-08-08T03:23:52.529Z,99665.02
2018-08-08T03:26:19.510Z,99664.95
2018-08-08T03:28:46.450Z,99668.25
2018-08-08T03:31:16.382Z,99674.05
2018-08-08T03:33:43.338Z,99678.58
2018-08-08T03:36:14.592Z,99675.23
2018-08-08T03:38:43.262Z,99672.32
2018-08-08T03:41:14.461Z,99692.25
2018-08-08T03:43:50.350Z,99689.33
2018-08-08T03:46:21.640Z,99682.80
2018-08-08T03:48:48.525Z,99693.98
2018-08-08T03:51:18.244Z,99729.47
2018-08-08T03:53:45.178Z,99728.42
2018-08-08T03:56:12.078Z,99740.13
2018-08-08T03:58:40.398Z,99751.02
2018-08-08T04:01:07.332Z,99763.24
2018-08-08T04:03:34.414Z,99775.77
2018-08-08T04:06:01.331Z,99790.64
2018-08-08T04:08:28.282Z,99812.94
2018-08-08T04:10:56.905Z,99817.73
2018-08-08T04:13:23.096Z,99815.56
2018-08-08T04:15:49.969Z,99816.08
2018-08-08T04:18:16.938Z,99810.17
2018-08-08T04:20:43.905Z,99813.06
2018-08-08T04:23:10.886Z,99808.77
2018-08-08T04:25:37.834Z,99808.69
2018-08-08T04:28:05.606Z,99803.77
2018-08-08T04:30:33.627Z,99814.84
2018-08-08T04:33:00.538Z,99820.03
2018-08-08T04:35:27.481Z,99817.05
2018-08-08T04:37:55.269Z,99827.89
2018-08-08T04:40:22.743Z,99839.80
2018-08-08T04:42:49.737Z,99839.53
2018-08-08T04:45:16.960Z,99838.87
2018-08-08T04:47:44.329Z,99846.30
2018-08-08T04:50:11.322Z,99854.71
2018-08-08T04:52:38.292Z,99858.48
2018-08-08T04:55:06.410Z,99858.17
2018-08-08T04:57:33.521Z,99870.91
2018-08-08T05:00:00.432Z,99875.43
2018-08-08T05:02:27.421Z,99869.64
2018-08-08T05:04:55.588Z,99863.30
2018-08-08T05:07:23.522Z,99866.23
2018-08-08T05:09:50.406Z,99866.52
2018-08-08T05:12:18.278Z,99864.05
2018-08-08T05:14:45.274Z,99859.88
2018-08-08T05:17:12.188Z,99869.06
2018-08-08T05:19:39.118Z,99867.39
2018-08-08T05:22:06.088Z,99868.34
2018-08-08T05:24:33.005Z,99862.29
2018-08-08T05:26:59.958Z,99879.63
2018-08-08T05:29:29.878Z,99882.88
2018-08-08T05:31:56.817Z,99887.86
2018-08-08T05:34:24.516Z,99883.28
2018-08-08T05:36:51.462Z,99886.66
2018-08-08T05:39:18.399Z,99884.17
2018-08-08T05:41:45.368Z,99879.71
2018-08-08T05:44:12.326Z,99888.99
2018-08-08T05:46:40.326Z,99886.58
2018-08-08T05:49:07.630Z,99884.27
2018-08-08T05:51:35.249Z,99892.18
2018-08-08T05:54:02.497Z,99890.42
2018-08-08T05:56:29.493Z,99899.92
2018-08-08T05:58:56.477Z,99894.82
2018-08-08T06:01:23.358Z,99899.11
2018-08-08T06:03:51.379Z,99898.70
2018-08-08T06:06:19.253Z,99886.45
2018-08-08T06:08:47.854Z,99887.59
2018-08-08T06:11:14.810Z,99885.25
2018-08-08T06:13:41.758Z,99876.41
2018-08-08T06:16:09.346Z,99867.51
2018-08-08T06:18:36.707Z,99863.84
2018-08-08T06:21:08.046Z,99865.15
2018-08-08T06:23:36.491Z,99867.60
2018-08-08T06:26:03.459Z,99873.63
2018-08-08T06:28:30.363Z,99873.95
2018-08-08T06:30:57.321Z,99873.70
2018-08-08T06:33:26.338Z,99867.48
2018-08-08T06:35:53.297Z,99868.02
2018-08-08T06:38:23.913Z,99855.69
2018-08-08T06:40:50.889Z,99853.95
2018-08-08T06:43:18.108Z,99845.75
2018-08-08T06:45:45.805Z,99836.31
2018-08-08T06:48:12.806Z,99810.37
2018-08-08T06:50:39.754Z,99779.75
2018-08-08T06:53:08.864Z,99748.17
2018-08-08T06:55:36.338Z,99749.50
2018-08-08T06:58:03.274Z,99803.08
2018-08-08T07:00:30.629Z,99827.70
2018-08-08T07:02:57.706Z,99841.06
2018-08-08T07:05:24.695Z,99859.33
2018-08-08T07:07:52.334Z,99875.45
2018-08-08T07:10:19.307Z,99888.21
2018-08-08T07:12:46.278Z,99889.64
2018-08-08T07:15:14.425Z,99908.61
2018-08-08T07:17:41.370Z,99912.56
2018-08-08T07:20:09.829Z,99916.98
2018-08-08T07:22:36.987Z,99922.49
2018-08-08T07:25:27.117Z,99935.09
2018-08-08T07:27:54.009Z,99946.00
2018-08-08T07:30:20.975Z,99938.03
2018-08-08T07:32:48.861Z,99940.83
2018-08-08T07:35:15.822Z,99931.48
2018-08-08T07:37:43.774Z,99925.50
2018-08-08T07:40:12.113Z,99938.09
2018-08-08T07:42:40.358Z,99943.20
2018-08-08T07:45:13.069Z,99942.94
2018-08-08T07:47:40.006Z,99934.14
2018-08-08T07:50:08.341Z,99934.41
2018-08-08T07:52:35.253Z,99933.56
2018-08-08T07:55:03.414Z,99930.30
2018-08-08T07:57:30.421Z,99942.11
2018-08-08T07:59:57.361Z,99938.69
2018-08-08T08:02:24.315Z,99951.75
2018-08-08T08:04:51.317Z,99943.95
2018-08-08T08:07:18.281Z,99939.73
2018-08-08T08:09:45.204Z,99933.61
2018-08-08T08:12:12.338Z,99937.49
2018-08-08T08:14:39.306Z,99937.02
2018-08-08T08:17:08.130Z,99941.56
2018-08-08T08:19:35.169Z,99949.45
2018-08-08T08:22:02.245Z,99934.36
2018-08-08T08:24:29.197Z,99936.53
2018-08-08T08:26:56.130Z,99927.14
2018-08-08T08:29:23.125Z,99931.33
2018-08-08T08:31:50.094Z,99938.98
2018-08-08T08:34:17.401Z,99943.39
2018-08-08T08:36:44.946Z,99949.83
2018-08-08T08:39:12.063Z,99950.55
2018-08-08T08:41:39.150Z,99958.55
2018-08-08T08:44:06.142Z,99952.84
2018-08-08T08:46:33.025Z,99950.13
2018-08-08T08:49:01.115Z,99957.62
2018-08-08T08:51:39.265Z,99952.23
2018-08-08T08:54:07.025Z,99955.53
2018-08-08T08:56:37.326Z,99953.57
2018-08-08T08:59:04.321Z,99961.13
2018-08-08T09:01:32.334Z,99959.08
2018-08-08T09:03:59.270Z,99955.98
2018-08-08T09:06:26.894Z,99949.38
2018-08-08T09:08:53.792Z,99958.25
2018-08-08T09:11:20.785Z,99957.66
2018-08-08T09:13:50.250Z,99958.20
2018-08-08T09:16:21.164Z,99957.31
2018-08-08T09:18:49.691Z,99948.16
2018-08-08T09:21:18.894Z,99946.41
2018-08-08T09:23:46.103Z,99947.22
2018-08-08T09:26:12.810Z,99940.03
2018-08-08T09:28:41.437Z,99936.78
2018-08-08T09:31:08.390Z,99940.95
2018-08-08T09:33:35.767Z,99945.83
2018-08-08T09:36:03.745Z,99941.08
2018-08-08T09:38:31.006Z,99938.15
2018-08-08T09:40:57.990Z,99941.81
2018-08-08T09:43:24.962Z,99934.13
2018-08-08T09:45:51.877Z,99941.59
2018-08-08T09:48:18.922Z,99943.48
2018-08-08T09:50:45.950Z,99942.56
2018-08-08T09:53:13.990Z,99942.52
2018-08-08T09:55:40.926Z,99936.71
2018-08-08T09:58:07.888Z,99936.51
2018-08-08T10:00:40.489Z,99934.03
2018-08-08T10:03:11.319Z,99936.84
2018-08-08T10:05:39.641Z,99939.32
2018-08-08T10:08:06.596Z,99934.34
2018-08-08T10:10:33.586Z,99945.84
2018-08-08T10:13:00.478Z,99942.61
2018-08-08T10:15:27.973Z,99939.04
2018-08-08T10:17:54.955Z,99943.19
2018-08-08T10:20:21.916Z,99938.23
2018-08-08T10:22:48.854Z,99934.89
2018-08-08T10:25:15.797Z,99950.25
2018-08-08T10:27:42.743Z,99942.12
2018-08-08T10:30:09.697Z,99952.73
2018-08-08T10:32:37.790Z,99957.39
2018-08-08T10:35:05.695Z,99968.31
2018-08-08T10:37:32.613Z,99963.16
2018-08-08T10:39:59.587Z,99970.81
2018-08-08T10:42:26.574Z,99971.36
2018-08-08T10:44:57.698Z,99966.17
2018-08-08T10:47:26.130Z,99972.56
2018-08-08T10:49:53.924Z,99968.73
2018-08-08T10:52:21.507Z,99969.51
2018-08-08T10:54:48.490Z,99970.24
2018-08-08T10:57:18.078Z,99973.28
2018-08-08T10:59:45.120Z,99974.18
2018-08-08T11:02:12.070Z,99966.97
2018-08-08T11:04:40.022Z,99968.35
2018-08-08T11:07:07.013Z,99977.80
2018-08-08T11:09:33.945Z,99970.91
2018-08-08T11:12:00.918Z,99970.88
2018-08-08T11:14:27.866Z,99968.43
2018-08-08T11:16:54.859Z,99972.80
2018-08-08T11:19:21.857Z,99972.02
2018-08-08T11:21:48.863Z,99962.55
2018-08-08T11:24:15.771Z,99964.50
2018-08-08T11:26:43.483Z,99970.60
2018-08-08T11:29:21.530Z,99984.47
2018-08-08T11:31:48.427Z,99968.66
2018-08-08T11:34:15.385Z,99974.38
2018-08-08T11:36:42.345Z,99970.38
2018-08-08T11:39:10.731Z,99976.70
2018-08-08T11:41:37.674Z,99975.77
2018-08-08T11:44:04.594Z,99969.41
2018-08-08T11:46:31.574Z,99973.99
2018-08-08T11:48:58.479Z,99972.23
2018-08-08T11:51:25.450Z,99963.35
2018-08-08T11:53:52.444Z,99962.95
2018-08-08T11:56:19.322Z,99970.40
2018-08-08T11:58:46.986Z,99964.31
2018-08-08T12:01:14.027Z,99965.58
2018-08-08T12:03:42.464Z,99957.23
2018-08-08T12:06:09.135Z,99968.63
2018-08-08T12:08:36.817Z,99972.84
2018-08-08T12:11:05.644Z,99974.50
2018-08-08T12:13:33.767Z,99972.83
2018-08-08T12:16:01.907Z,99972.09
2018-08-08T12:18:28.905Z,99969.79
2018-08-08T12:20:56.858Z,99969.07
2018-08-08T12:23:25.581Z,99968.38
2018-08-08T12:25:53.209Z,99960.41
2018-08-08T12:28:20.976Z,99965.66
2018-08-08T12:30:47.953Z,99961.97
2018-08-08T12:33:15.835Z,99961.35
2018-08-08T12:35:42.850Z,99953.50
2018-08-08T12:38:10.774Z,99952.90
2018-08-08T12:40:38.408Z,99958.62
2018-08-08T12:43:05.499Z,99961.10
2018-08-08T12:45:32.545Z,99960.03
2018-08-08T12:48:00.307Z,99958.53
2018-08-08T12:50:28.014Z,99952.27
2018-08-08T12:53:00.401Z,99944.84
2018-08-08T12:55:31.614Z,99953.93
2018-08-08T12:57:59.805Z,99957.38
2018-08-08T13:00:26.797Z,99960.05
2018-08-08T13:02:54.032Z,99958.22
2018-08-08T13:05:34.658Z,99956.41
2018-08-08T13:08:09.373Z,99951.88
2018-08-08T13:10:54.898Z,99951.64
2018-08-08T13:13:31.756Z,99958.06
2018-08-08T13:15:58.715Z,99956.88
2018-08-08T13:18:25.630Z,99944.03
2018-08-08T13:20:52.685Z,99954.11
2018-08-08T13:23:20.795Z,99946.16
2018-08-08T13:25:47.868Z,99949.27
2018-08-08T13:28:14.953Z,99953.98
2018-08-08T13:30:42.558Z,99941.73
2018-08-08T13:33:08.930Z,99948.05
2018-08-08T13:35:35.877Z,99949.14
2018-08-08T13:38:02.842Z,99950.71
2018-08-08T13:40:30.000Z,99949.91
2018-08-08T13:43:13.414Z,99946.04
2018-08-08T13:45:40.555Z,99948.09
2018-08-08T13:48:07.518Z,99952.92
2018-08-08T13:50:34.438Z,99946.16
2018-08-08T13:53:01.422Z,99936.42
2018-08-08T13:55:28.342Z,99935.43
2018-08-08T13:57:55.366Z,99929.38
2018-08-08T14:00:23.398Z,99924.81
2018-08-08T14:02:50.339Z,99932.30
2018-08-08T14:05:17.403Z,99931.09
2018-08-08T14:07:46.362Z,99933.53
2018-08-08T14:10:24.149Z,99931.13
2018-08-08T14:12:51.109Z,99926.64
2018-08-08T14:15:18.074Z,99931.39
2018-08-08T14:17:46.098Z,99933.86
2018-08-08T14:20:13.207Z,99932.52
2018-08-08T14:22:40.352Z,99935.00
2018-08-08T14:25:07.815Z,99939.63
2018-08-08T14:27:34.900Z,99953.53
2018-08-08T14:30:03.687Z,99948.16
2018-08-08T14:32:32.302Z,99944.31
2018-08-08T14:35:00.210Z,99942.42
2018-08-08T14:37:27.256Z,99948.54
2018-08-08T14:39:54.222Z,99951.25
2018-08-08T14:42:24.709Z,99947.83
2018-08-08T14:45:01.477Z,99946.59
2018-08-08T14:47:37.414Z,99956.27
2018-08-08T14:50:21.827Z,99959.52
2018-08-08T14:52:48.743Z,99955.51
2018-08-08T14:55:15.638Z,99955.31
2018-08-08T14:57:42.613Z,99951.43
2018-08-08T15:00:10.489Z,99945.91
2018-08-08T15:02:37.583Z,99947.30
2018-08-08T15:05:05.747Z,99940.77
2018-08-08T15:07:32.722Z,99945.75
2018-08-08T15:09:59.634Z,99945.50
2018-08-08T15:12:26.581Z,99949.59
2018-08-08T15:14:54.192Z,99945.11
2018-08-08T15:17:21.161Z,99940.27
2018-08-08T15:19:48.130Z,99935.83
2018-08-08T15:22:15.087Z,99930.81
2018-08-08T15:24:42.315Z,99932.64
2018-08-08T15:27:11.526Z,99929.55
2018-08-08T15:29:38.479Z,99923.20
2018-08-08T15:32:06.028Z,99929.11
2018-08-08T15:34:34.625Z,99926.19
2018-08-08T15:37:01.764Z,99917.91
2018-08-08T15:39:28.549Z,99912.89
2018-08-08T15:41:55.522Z,99914.34
2018-08-08T15:44:22.425Z,99913.57
2018-08-08T15:46:49.306Z,99909.36
2018-08-08T15:49:16.278Z,99907.17
2018-08-08T15:51:43.259Z,99900.77
2018-08-08T15:54:10.231Z,99906.54
2018-08-08T15:56:37.348Z,99900.57
2018-08-08T15:59:04.316Z,99897.23
2018-08-08T16:01:32.436Z,99895.42
2018-08-08T16:03:59.411Z,99892.96
2018-08-08T16:06:26.333Z,99892.80
2018-08-08T16:08:53.303Z,99895.33
2018-08-08T16:11:20.406Z,99885.62
2018-08-08T16:13:47.525Z,99893.19
2018-08-08T16:16:14.559Z,99888.02
2018-08-08T16:18:41.549Z,99889.91
2018-08-08T16:21:08.631Z,99887.33
2018-08-08T16:23:35.526Z,99901.31
2018-08-08T16:26:02.532Z,99896.03
2018-08-08T16:28:29.429Z,99896.52
2018-08-08T16:30:56.398Z,99894.59
2018-08-08T16:33:23.550Z,99898.17
2018-08-08T16:35:58.391Z,99905.06
2018-08-08T16:38:27.854Z,99899.18
2018-08-08T16:40:54.765Z,99904.38
2018-08-08T16:43:21.771Z,99903.84
2018-08-08T16:45:49.719Z,99899.25
2018-08-08T16:48:16.673Z,99900.13
2018-08-08T16:50:44.016Z,99907.46
2018-08-08T16:53:11.035Z,99907.14
2018-08-08T16:55:38.099Z,99906.95
2018-08-08T16:58:06.199Z,99906.16
2018-08-08T17:00:35.223Z,99904.46
2018-08-08T17:03:07.322Z,99914.43
2018-08-08T17:05:35.698Z,99915.41
2018-08-08T17:08:04.485Z,99920.66
2018-08-08T17:10:32.542Z,99929.79
2018-08-08T17:13:01.158Z,99923.11
2018-08-08T17:15:29.799Z,99929.02
2018-08-08T17:18:01.792Z,99925.80
2018-08-08T17:20:38.288Z,99931.91
2018-08-08T17:23:14.533Z,99938.92
2018-08-08T17:25:42.236Z,99942.77
2018-08-08T17:28:09.722Z,99941.18
2018-08-08T17:30:36.673Z,99935.72
2018-08-08T17:33:03.693Z,99944.23
2018-08-08T17:35:30.647Z,99939.98
2018-08-08T17:37:58.178Z,99952.00
2018-08-08T17:40:26.091Z,99954.42
2018-08-08T17:42:53.106Z,99959.27
2018-08-08T17:45:19.998Z,99958.53
2018-08-08T17:47:46.930Z,99971.58
2018-08-08T17:50:13.843Z,99967.50
2018-08-08T17:52:42.154Z,99960.05
2018-08-08T17:55:09.082Z,99963.63
2018-08-08T17:57:36.047Z,99975.53
2018-08-08T18:00:03.766Z,99971.52
2018-08-08T18:02:30.650Z,99974.51
2018-08-08T18:04:58.307Z,99977.13
2018-08-08T18:07:26.173Z,99978.98
2018-08-08T18:09:53.030Z,99980.92
2018-08-08T18:12:19.938Z,99985.75
2018-08-08T18:14:54.810Z,99984.94
2018-08-08T18:17:31.281Z,99983.07
2018-08-08T18:19:58.872Z,99982.03
2018-08-08T18:22:38.412Z,99991.10
2018-08-08T18:25:13.146Z,99997.76
2018-08-08T18:27:40.088Z,99990.25
2018-08-08T18:30:08.754Z,99992.38
2018-08-08T18:32:37.588Z,99993.69
2018-08-08T18:35:10.166Z,99988.88
2018-08-08T18:37:39.019Z,99993.95
2018-08-08T18:40:10.432Z,99992.12
2018-08-08T18:42:38.414Z,99999.06
2018-08-08T18:45:05.354Z,99996.69
2018-08-08T18:47:32.376Z,99992.92
2018-08-08T18:49:59.300Z,99994.25
2018-08-08T18:52:26.251Z,100002.44
2018-08-08T18:54:53.186Z,100006.75
2018-08-08T18:57:20.570Z,100005.09
2018-08-08T18:59:48.242Z,100011.24
2018-08-08T19:02:15.782Z,100012.53
2018-08-08T19:04:42.753Z,100010.13
2018-08-08T19:07:09.714Z,100014.08
2018-08-08T19:09:36.718Z,100018.02
2018-08-08T19:12:03.633Z,100017.67
2018-08-08T19:14:30.609Z,100017.63
2018-08-08T19:16:57.566Z,100020.69
2018-08-08T19:19:24.558Z,100025.20
2018-08-08T19:21:51.494Z,100026.94
2018-08-08T19:24:18.414Z,100026.36
2018-08-08T19:26:45.578Z,100027.55
2018-08-08T19:29:13.555Z,100033.21
2018-08-08T19:31:40.523Z,100029.08
2018-08-08T19:34:07.461Z,100037.88
2018-08-08T19:36:35.249Z,100038.00
2018-08-08T19:39:03.446Z,100037.70
2018-08-08T19:41:30.397Z,100039.93
2018-08-08T19:43:57.353Z,100045.28
2018-08-08T19:46:24.341Z,100048.83
2018-08-08T19:48:51.328Z,100039.39
2018-08-08T19:51:18.838Z,100046.20
2018-08-08T19:53:45.798Z,100047.16
2018-08-08T19:56:12.759Z,100051.48
2018-08-08T19:58:39.705Z,100055.13
2018-08-08T20:01:06.678Z,100053.95
2018-08-08T20:03:33.629Z,100052.05
2018-08-08T20:06:00.554Z,100055.16
2018-08-08T20:08:28.385Z,100059.94
2018-08-08T20:10:56.350Z,100053.92
2018-08-08T20:13:23.379Z,100051.48
2018-08-08T20:15:52.014Z,100051.30
2018-08-08T20:18:18.960Z,100045.92
2018-08-08T20:20:45.939Z,100048.59
2018-08-08T20:23:12.979Z,100050.20
2018-08-08T20:25:40.011Z,100052.05
2018-08-08T20:28:06.914Z,100052.51
2018-08-08T20:30:50.513Z,100057.20
2018-08-08T20:33:24.058Z,100055.97
2018-08-08T20:35:51.009Z,100058.89
2018-08-08T20:38:18.477Z,100059.48
2018-08-08T20:40:47.762Z,100064.48
2018-08-08T20:43:17.876Z,100060.67
2018-08-08T20:45:44.811Z,100057.51
2018-08-08T20:48:11.759Z,100054.97
2018-08-08T20:50:38.714Z,100049.52
2018-08-08T20:53:06.660Z,100053.61
2018-08-08T20:55:33.637Z,100057.58
2018-08-08T20:58:00.698Z,100051.88
2018-08-08T21:00:27.639Z,100055.25
2018-08-08T21:03:02.138Z,100054.96
2018-08-08T21:05:32.270Z,100052.37
2018-08-08T21:08:03.149Z,100046.98
2018-08-08T21:10:30.893Z,100061.84
2018-08-08T21:13:05.217Z,100069.95
2018-08-08T21:15:32.142Z,100070.45
2018-08-08T21:18:00.115Z,100064.03
2018-08-08T21:20:27.061Z,100064.47
2018-08-08T21:22:54.031Z,100057.03
2018-08-08T21:25:20.981Z,100060.15
2018-08-08T21:27:48.021Z,100059.48
2018-08-08T21:30:16.056Z,100053.60
2018-08-08T21:32:46.417Z,100056.16
2018-08-08T21:35:23.382Z,100057.27
2018-08-08T21:37:50.330Z,100063.86
2018-08-08T21:40:17.346Z,100060.76
2018-08-08T21:42:44.261Z,100058.75
2018-08-08T21:45:11.205Z,100048.70
2018-08-08T21:47:38.129Z,100053.40
2018-08-08T21:50:05.823Z,100053.02
2018-08-08T21:52:32.791Z,100054.61
2018-08-08T21:55:11.514Z,100059.12
2018-08-08T21:57:50.805Z,100061.92
2018-08-08T22:00:29.376Z,100058.31
2018-08-08T22:03:08.174Z,100056.56
2018-08-08T22:05:47.714Z,100050.45
2018-08-08T22:08:26.238Z,100062.69
2018-08-08T22:11:19.178Z,100058.55
2018-08-08T22:13:57.626Z,100053.48
2018-08-08T22:16:37.258Z,100057.95
2018-08-08T22:19:23.901Z,100059.16
2018-08-08T22:21:51.031Z,100063.47
2018-08-08T22:24:18.005Z,100062.25
2018-08-08T22:26:44.954Z,100063.42
2018-08-08T22:29:12.735Z,100065.68
2018-08-08T22:31:40.045Z,100058.68
2018-08-08T22:34:06.982Z,100064.52
2018-08-08T22:36:33.919Z,100061.34
2018-08-08T22:39:00.896Z,100063.81
2018-08-08T22:41:27.850Z,100069.55
2018-08-08T22:43:55.389Z,100066.03
2018-08-08T22:46:22.374Z,100072.10
2018-08-08T22:48:49.308Z,100075.91
2018-08-08T22:51:16.275Z,100062.34
2018-08-08T22:53:43.237Z,100061.06
2018-08-08T22:56:10.189Z,100065.48
2018-08-08T22:58:37.114Z,100065.55
2018-08-08T23:01:04.943Z,100064.97
2018-08-08T23:03:32.417Z,100064.91
2018-08-08T23:05:59.358Z,100073.54
2018-08-08T23:08:29.387Z,100073.88
2018-08-08T23:10:56.376Z,100075.33
2018-08-08T23:13:23.919Z,100066.01
2018-08-08T23:15:50.854Z,100067.14
2018-08-08T23:18:17.813Z,100066.28
2018-08-08T23:20:44.781Z,100065.12
2018-08-08T23:23:12.757Z,100055.69
2018-08-08T23:25:40.465Z,100057.09
2018-08-08T23:28:15.877Z,100046.77
2018-08-08T23:30:45.853Z,100048.96
2018-08-08T23:33:12.778Z,100050.73
2018-08-08T23:35:39.770Z,100046.61
2018-08-08T23:38:06.698Z,100046.31
2018-08-08T23:40:34.509Z,100046.89
2018-08-08T23:43:02.001Z,100044.04
2018-08-08T23:45:28.975Z,100046.89
2018-08-08T23:47:55.865Z,100041.67
2018-08-08T23:50:22.833Z,100045.94
2018-08-08T23:53:21.005Z,100038.58
2018-08-08T23:55:47.982Z,100037.52
2018-08-08T23:58:14.950Z,100039.23
